Pleasant Green, Utah
Current Conditions -  °F | °C
As of 10:53 PM on Tuesday 25 Nov 2014 (Local Time) from KSLC Reporting Station
Broken Clouds Broken Clouds  
Wind Chill: 39°   Ceiling: 6500
Heat Index: 43°   Visibility: 10mi
Dew Point: 29°   Wind: 7mph
Humidity: 58%   Direction: 140°SE
Pressure: 30.31"   Gusts: NA
Location:  40.7034°N, 112.112°W
Report Text: KSLC 260553Z 14006KT 10SM BKN065 06/M02 A3031 RMK AO2 SLP261 60000 T00611017 10072 20061 51003
Loading
Personal Weather Stations






























Interactive Weather Map New forecast layout! Learn more

10-Day Weather Forecast

Advertisements
Track Severe Weather on mobile